createdAt,value
2023-05-11T00:01:04.893Z,17.80
2023-05-11T00:03:52.330Z,17.80
2023-05-11T00:06:37.995Z,17.80
2023-05-11T00:09:23.968Z,17.80
2023-05-11T00:12:09.516Z,17.80
2023-05-11T00:14:55.470Z,17.90
2023-05-11T00:17:40.970Z,17.70
2023-05-11T00:20:27.900Z,17.70
2023-05-11T00:23:13.292Z,17.70
2023-05-11T00:25:59.144Z,17.70
2023-05-11T00:28:45.391Z,17.70
2023-05-11T00:31:31.236Z,17.70
2023-05-11T00:34:17.771Z,17.70
2023-05-11T00:37:04.677Z,17.80
2023-05-11T00:39:50.433Z,17.60
2023-05-11T00:42:36.499Z,17.60
2023-05-11T00:45:22.012Z,17.70
2023-05-11T00:48:08.702Z,17.70
2023-05-11T00:50:54.987Z,17.70
2023-05-11T00:53:45.506Z,17.60
2023-05-11T00:56:31.211Z,17.60
2023-05-11T00:59:17.148Z,17.60
2023-05-11T01:02:04.224Z,17.60
2023-05-11T01:04:50.530Z,17.60
2023-05-11T01:07:43.905Z,17.50
2023-05-11T01:10:34.633Z,17.60
2023-05-11T01:13:26.696Z,17.70
2023-05-11T01:16:20.827Z,17.60
2023-05-11T01:19:18.508Z,17.60
2023-05-11T01:22:10.240Z,17.50
2023-05-11T01:25:07.232Z,17.60
2023-05-11T01:28:26.045Z,17.60
2023-05-11T01:31:15.389Z,17.60
2023-05-11T01:34:04.436Z,17.60
2023-05-11T01:36:54.750Z,17.70
2023-05-11T01:39:44.002Z,17.60
2023-05-11T01:42:35.406Z,17.80
2023-05-11T01:45:23.828Z,17.80
2023-05-11T01:48:17.091Z,17.90
2023-05-11T01:51:04.393Z,17.80
2023-05-11T01:53:50.794Z,17.70
2023-05-11T01:56:38.663Z,17.80
2023-05-11T01:59:26.154Z,17.90
2023-05-11T02:02:13.552Z,18.00
2023-05-11T02:05:03.087Z,17.80
2023-05-11T02:07:51.207Z,17.80
2023-05-11T02:10:38.659Z,17.70
2023-05-11T02:13:26.514Z,17.60
2023-05-11T02:16:12.843Z,17.50
2023-05-11T02:18:59.975Z,17.50
2023-05-11T02:21:49.136Z,17.50
2023-05-11T02:24:35.846Z,17.40
2023-05-11T02:27:21.756Z,17.20
2023-05-11T02:30:08.827Z,17.10
2023-05-11T02:32:58.741Z,17.30
2023-05-11T02:35:45.981Z,17.40
2023-05-11T02:38:34.722Z,17.50
2023-05-11T02:41:29.460Z,17.50
2023-05-11T02:44:18.818Z,17.50
2023-05-11T02:47:07.698Z,17.40
2023-05-11T02:49:57.772Z,17.50
2023-05-11T02:52:47.390Z,17.40
2023-05-11T02:55:34.515Z,17.60
2023-05-11T02:58:20.994Z,17.60
2023-05-11T03:01:13.592Z,17.70
2023-05-11T03:03:59.659Z,17.70
2023-05-11T03:06:47.943Z,17.60
2023-05-11T03:09:35.104Z,17.40
2023-05-11T03:12:23.582Z,17.40
2023-05-11T03:15:12.219Z,17.50
2023-05-11T03:18:00.721Z,17.40
2023-05-11T03:20:48.120Z,17.50
2023-05-11T03:23:36.112Z,17.50
2023-05-11T03:26:22.664Z,17.30
2023-05-11T03:29:11.692Z,17.10
2023-05-11T03:31:57.727Z,17.00
2023-05-11T03:34:44.325Z,17.10
2023-05-11T03:37:36.151Z,17.20
2023-05-11T03:40:24.097Z,17.20
2023-05-11T03:43:17.996Z,17.00
2023-05-11T03:46:07.953Z,17.10
2023-05-11T03:48:55.162Z,17.30
2023-05-11T03:51:45.650Z,17.20
2023-05-11T03:54:32.292Z,17.20
2023-05-11T03:57:17.978Z,17.30
2023-05-11T04:00:06.543Z,17.20
2023-05-11T04:03:05.621Z,17.20
2023-05-11T04:05:51.301Z,17.50
2023-05-11T04:08:37.006Z,17.40
2023-05-11T04:11:22.901Z,17.30
2023-05-11T04:14:08.690Z,17.40
2023-05-11T04:16:54.723Z,17.40
2023-05-11T04:19:41.750Z,17.50
2023-05-11T04:22:27.407Z,17.50
2023-05-11T04:25:13.761Z,17.70
2023-05-11T04:27:59.473Z,17.70
2023-05-11T04:30:45.147Z,17.70
2023-05-11T04:33:31.620Z,17.80
2023-05-11T04:36:20.380Z,17.80
2023-05-11T04:39:07.856Z,17.70
2023-05-11T04:41:55.951Z,17.90
2023-05-11T04:44:43.623Z,18.10
2023-05-11T04:47:29.334Z,18.00
2023-05-11T04:50:15.875Z,18.00
2023-05-11T04:53:02.989Z,18.00
2023-05-11T04:55:49.284Z,18.00
2023-05-11T04:58:35.244Z,18.10
2023-05-11T05:01:21.167Z,18.20
2023-05-11T05:04:09.937Z,17.90
2023-05-11T05:06:57.078Z,17.80
2023-05-11T05:09:45.469Z,18.10
2023-05-11T05:12:33.300Z,18.40
2023-05-11T05:15:18.874Z,18.50
2023-05-11T05:18:04.698Z,18.50
2023-05-11T05:20:50.810Z,18.50
2023-05-11T05:23:36.939Z,18.60
2023-05-11T05:26:24.556Z,18.80
2023-05-11T05:29:10.622Z,18.80
2023-05-11T05:31:59.847Z,18.70
2023-05-11T05:34:49.281Z,18.70
2023-05-11T05:37:37.388Z,18.90
2023-05-11T05:40:23.540Z,19.00
2023-05-11T05:43:14.452Z,19.30
2023-05-11T05:46:02.253Z,20.70
2023-05-11T05:48:48.846Z,22.50
2023-05-11T05:51:34.758Z,24.40
2023-05-11T05:54:21.718Z,25.60
2023-05-11T05:57:07.528Z,26.30
2023-05-11T05:59:54.811Z,26.70
2023-05-11T06:02:41.727Z,26.80
2023-05-11T06:05:34.358Z,26.60
2023-05-11T06:08:20.371Z,26.20
2023-05-11T06:11:06.292Z,25.60
2023-05-11T06:13:52.356Z,25.10
2023-05-11T06:16:39.565Z,24.90
2023-05-11T06:19:25.558Z,24.70
2023-05-11T06:22:12.052Z,24.40
2023-05-11T06:24:58.098Z,24.00
2023-05-11T06:27:45.352Z,23.80
2023-05-11T06:30:31.424Z,23.60
2023-05-11T06:33:19.677Z,23.20
2023-05-11T06:36:06.573Z,23.30
2023-05-11T06:39:00.011Z,23.70
2023-05-11T06:41:46.179Z,24.60
2023-05-11T06:44:32.351Z,26.30
2023-05-11T06:47:17.968Z,28.10
2023-05-11T06:50:06.030Z,30.40
2023-05-11T06:52:51.715Z,32.40
2023-05-11T06:55:37.985Z,33.40
2023-05-11T06:58:23.862Z,33.30
2023-05-11T07:01:09.371Z,32.70
2023-05-11T07:03:55.492Z,31.90
2023-05-11T07:06:42.984Z,30.50
2023-05-11T07:09:28.681Z,29.30
2023-05-11T07:12:14.618Z,28.50
2023-05-11T07:15:00.238Z,27.80
2023-05-11T07:17:49.806Z,27.20
2023-05-11T07:20:40.061Z,26.90
2023-05-11T07:23:27.147Z,26.80
2023-05-11T07:26:12.909Z,26.60
2023-05-11T07:28:58.504Z,26.10
2023-05-11T07:31:44.381Z,26.30
2023-05-11T07:34:30.791Z,25.80
2023-05-11T07:37:22.580Z,25.80
2023-05-11T07:40:11.281Z,26.10
2023-05-11T07:42:57.241Z,26.60
2023-05-11T07:45:42.904Z,27.00
2023-05-11T07:48:28.871Z,26.90
2023-05-11T07:51:15.260Z,26.50
2023-05-11T07:54:01.001Z,26.50
2023-05-11T07:56:48.047Z,26.50
2023-05-11T07:59:33.871Z,26.50
2023-05-11T08:02:19.687Z,26.40
2023-05-11T08:05:06.339Z,26.30
2023-05-11T08:07:51.943Z,26.60
2023-05-11T08:10:38.015Z,26.90
2023-05-11T08:13:25.912Z,26.80
2023-05-11T08:16:11.786Z,26.50
2023-05-11T08:18:57.952Z,26.20
2023-05-11T08:21:44.915Z,26.00
2023-05-11T08:24:30.467Z,25.80
2023-05-11T08:27:16.499Z,26.00
2023-05-11T08:30:05.109Z,26.50
2023-05-11T08:32:58.663Z,27.00
2023-05-11T08:35:45.375Z,27.40
2023-05-11T08:38:31.297Z,27.70
2023-05-11T08:41:17.232Z,27.80
2023-05-11T08:44:03.860Z,27.80
2023-05-11T08:47:03.655Z,28.00
2023-05-11T08:49:58.887Z,28.60
2023-05-11T08:52:45.093Z,29.40
2023-05-11T08:55:33.246Z,29.90
2023-05-11T08:58:22.343Z,30.50
2023-05-11T09:01:10.150Z,31.30
2023-05-11T09:03:58.435Z,31.70
2023-05-11T09:06:44.488Z,31.70
2023-05-11T09:09:31.117Z,31.70
2023-05-11T09:12:17.225Z,31.40
2023-05-11T09:15:03.340Z,31.40
2023-05-11T09:17:49.593Z,31.40
2023-05-11T09:20:36.955Z,30.80
2023-05-11T09:23:26.471Z,30.40
2023-05-11T09:26:15.552Z,30.50
2023-05-11T09:29:03.394Z,31.30
2023-05-11T09:31:50.019Z,32.20
2023-05-11T09:34:36.082Z,32.20
2023-05-11T09:37:23.341Z,31.70
2023-05-11T09:40:25.725Z,31.50
2023-05-11T09:43:17.896Z,31.30
2023-05-11T09:46:07.469Z,30.80
2023-05-11T09:49:00.177Z,30.40
2023-05-11T09:51:46.001Z,29.90
2023-05-11T09:54:42.768Z,29.60
2023-05-11T09:57:30.630Z,29.40
2023-05-11T10:00:16.756Z,29.10
2023-05-11T10:03:04.914Z,28.60
2023-05-11T10:05:57.789Z,28.40
2023-05-11T10:08:43.816Z,28.20
2023-05-11T10:11:30.727Z,28.00
2023-05-11T10:14:19.081Z,28.10
2023-05-11T10:17:05.709Z,27.80
2023-05-11T10:19:54.421Z,27.50
2023-05-11T10:22:40.662Z,27.30
2023-05-11T10:25:26.716Z,27.50
2023-05-11T10:28:13.980Z,27.90
2023-05-11T10:31:00.118Z,27.80
2023-05-11T10:33:49.092Z,27.70
2023-05-11T10:36:35.153Z,28.00
2023-05-11T10:39:21.594Z,28.20
2023-05-11T10:42:25.530Z,28.40
2023-05-11T10:45:22.607Z,28.50
2023-05-11T10:48:24.877Z,28.70
2023-05-11T10:51:46.267Z,28.00
2023-05-11T10:54:46.534Z,28.20
2023-05-11T10:57:47.879Z,28.70
2023-05-11T11:00:52.108Z,28.60
2023-05-11T11:03:39.427Z,28.80
2023-05-11T11:06:25.784Z,28.50
2023-05-11T11:09:15.589Z,28.00
2023-05-11T11:12:09.706Z,27.90
2023-05-11T11:14:57.637Z,27.60
2023-05-11T11:17:44.847Z,27.20
2023-05-11T11:20:48.867Z,26.80
2023-05-11T11:23:42.304Z,26.20
2023-05-11T11:26:47.957Z,25.80
2023-05-11T11:29:35.079Z,25.50
2023-05-11T11:32:27.512Z,25.20
2023-05-11T11:35:45.937Z,24.30
2023-05-11T11:38:34.065Z,24.10
2023-05-11T11:41:29.113Z,23.20
2023-05-11T11:44:21.928Z,22.10
2023-05-11T11:47:11.689Z,20.60
2023-05-11T11:50:13.171Z,18.90
2023-05-11T11:52:59.600Z,18.00
2023-05-11T11:55:48.922Z,17.10
2023-05-11T11:58:59.805Z,16.50
2023-05-11T12:01:45.864Z,15.90
2023-05-11T12:04:39.897Z,16.00
2023-05-11T12:07:26.828Z,15.80
2023-05-11T12:10:14.080Z,16.20
2023-05-11T12:13:01.733Z,16.30
2023-05-11T12:15:47.553Z,16.30
2023-05-11T12:18:33.548Z,16.20
2023-05-11T12:21:21.034Z,16.40
2023-05-11T12:24:07.315Z,16.50
2023-05-11T12:26:56.984Z,17.30
2023-05-11T12:29:49.069Z,18.00
2023-05-11T12:32:35.134Z,18.40
2023-05-11T12:35:24.267Z,18.80
2023-05-11T12:38:11.205Z,18.90
2023-05-11T12:40:56.902Z,19.10
2023-05-11T12:43:42.898Z,19.40
2023-05-11T12:46:30.221Z,19.40
2023-05-11T12:49:24.754Z,19.30
2023-05-11T12:52:13.768Z,19.30
2023-05-11T12:55:00.811Z,19.50
2023-05-11T12:57:46.592Z,19.80
2023-05-11T13:00:32.444Z,19.90
2023-05-11T13:03:23.273Z,20.20
2023-05-11T13:06:11.366Z,20.20
2023-05-11T13:08:56.964Z,20.40
2023-05-11T13:11:42.831Z,20.50
2023-05-11T13:14:31.691Z,20.60
2023-05-11T13:17:31.060Z,20.70
2023-05-11T13:20:20.065Z,20.90
2023-05-11T13:23:07.933Z,21.20
2023-05-11T13:25:54.241Z,21.30
2023-05-11T13:28:40.050Z,21.50
2023-05-11T13:31:26.155Z,21.70
2023-05-11T13:34:12.557Z,21.80
2023-05-11T13:36:59.543Z,21.80
2023-05-11T13:39:45.278Z,22.20
2023-05-11T13:42:31.241Z,22.40
2023-05-11T13:45:17.063Z,22.40
2023-05-11T13:48:03.667Z,22.80
2023-05-11T13:50:49.901Z,23.30
2023-05-11T13:53:36.750Z,23.70
2023-05-11T13:56:22.976Z,23.90
2023-05-11T13:59:09.346Z,24.30
2023-05-11T14:01:55.177Z,24.50
2023-05-11T14:04:41.732Z,24.80
2023-05-11T14:07:35.585Z,24.90
2023-05-11T14:10:30.309Z,25.10
2023-05-11T14:13:16.134Z,25.30
2023-05-11T14:16:02.415Z,25.30
2023-05-11T14:18:50.244Z,25.30
2023-05-11T14:21:36.537Z,25.50
2023-05-11T14:24:22.730Z,25.90
2023-05-11T14:27:09.649Z,26.00
2023-05-11T14:29:55.583Z,26.20
2023-05-11T14:32:41.144Z,26.40
2023-05-11T14:35:27.218Z,26.60
2023-05-11T14:38:12.731Z,26.60
2023-05-11T14:41:00.001Z,26.70
2023-05-11T14:43:49.163Z,26.70
2023-05-11T14:46:34.996Z,26.70
2023-05-11T14:49:20.964Z,26.70
2023-05-11T14:52:06.910Z,26.70
2023-05-11T14:54:52.797Z,26.40
2023-05-11T14:57:38.926Z,26.30
2023-05-11T15:00:25.840Z,26.00
2023-05-11T15:03:11.761Z,26.00
2023-05-11T15:05:57.419Z,26.10
2023-05-11T15:08:43.231Z,26.10
2023-05-11T15:11:28.836Z,26.20
2023-05-11T15:14:14.925Z,26.10
2023-05-11T15:17:02.486Z,26.10
2023-05-11T15:19:48.222Z,26.30
2023-05-11T15:22:34.414Z,26.50
2023-05-11T15:25:21.092Z,26.50
2023-05-11T15:28:07.258Z,26.50
2023-05-11T15:30:52.928Z,25.90
2023-05-11T15:33:40.079Z,25.80
2023-05-11T15:36:29.726Z,25.70
2023-05-11T15:39:16.180Z,25.80
2023-05-11T15:42:02.876Z,25.80
2023-05-11T15:44:48.503Z,25.90
2023-05-11T15:47:34.378Z,26.10
2023-05-11T15:50:22.061Z,26.20
2023-05-11T15:53:08.120Z,26.20
2023-05-11T15:55:55.367Z,26.10
2023-05-11T15:58:41.580Z,26.00
2023-05-11T16:01:27.316Z,25.80
2023-05-11T16:04:12.957Z,25.80
2023-05-11T16:06:59.638Z,25.70
2023-05-11T16:09:45.037Z,25.20
2023-05-11T16:12:30.643Z,25.00
2023-05-11T16:15:16.955Z,24.70
2023-05-11T16:18:04.892Z,24.40
2023-05-11T16:20:51.604Z,24.10
2023-05-11T16:23:38.940Z,23.70
2023-05-11T16:26:24.588Z,23.60
2023-05-11T16:29:10.644Z,23.40
2023-05-11T16:31:57.224Z,22.80
2023-05-11T16:34:43.106Z,21.50
2023-05-11T16:37:29.149Z,19.20
2023-05-11T16:40:19.376Z,18.30
2023-05-11T16:43:06.144Z,17.40
2023-05-11T16:45:53.774Z,17.00
2023-05-11T16:48:39.640Z,17.00
2023-05-11T16:51:25.301Z,17.10
2023-05-11T16:54:11.132Z,16.70
2023-05-11T16:56:58.391Z,16.50
2023-05-11T16:59:44.152Z,16.90
2023-05-11T17:02:31.163Z,17.00
2023-05-11T17:05:18.231Z,17.20
2023-05-11T17:08:04.371Z,17.40
2023-05-11T17:10:50.525Z,17.30
2023-05-11T17:13:37.517Z,17.70
2023-05-11T17:16:25.744Z,18.10
2023-05-11T17:19:11.909Z,18.10
2023-05-11T17:21:57.430Z,18.40
2023-05-11T17:24:43.241Z,18.60
2023-05-11T17:27:29.957Z,18.80
2023-05-11T17:30:17.659Z,19.00
2023-05-11T17:33:03.791Z,19.20
2023-05-11T17:35:50.747Z,19.40
2023-05-11T17:38:36.911Z,19.40
2023-05-11T17:41:23.001Z,19.40
2023-05-11T17:44:09.470Z,19.40
2023-05-11T17:46:56.483Z,19.50
2023-05-11T17:49:42.604Z,19.50
2023-05-11T17:52:28.859Z,19.50
2023-05-11T17:55:14.664Z,19.30
2023-05-11T17:58:00.341Z,19.10
2023-05-11T18:00:49.443Z,19.30
2023-05-11T18:03:37.931Z,19.40
2023-05-11T18:06:24.202Z,19.30
2023-05-11T18:09:12.473Z,19.50
2023-05-11T18:11:58.383Z,19.50
2023-05-11T18:14:44.358Z,19.60
2023-05-11T18:17:30.054Z,19.70
2023-05-11T18:20:17.581Z,19.80
2023-05-11T18:23:03.811Z,19.60
2023-05-11T18:25:49.670Z,19.40
2023-05-11T18:28:35.808Z,19.00
2023-05-11T18:31:21.897Z,19.20
2023-05-11T18:34:07.983Z,19.40
2023-05-11T18:36:55.504Z,19.50
2023-05-11T18:39:41.473Z,19.40
2023-05-11T18:42:27.053Z,19.40
2023-05-11T18:45:13.886Z,19.30
2023-05-11T18:47:59.873Z,19.50
2023-05-11T18:50:45.578Z,19.30
2023-05-11T18:53:33.216Z,19.30
2023-05-11T18:56:19.141Z,19.30
2023-05-11T18:59:05.100Z,18.90
2023-05-11T19:01:50.777Z,18.90
2023-05-11T19:04:36.634Z,19.10
2023-05-11T19:07:22.391Z,19.00
2023-05-11T19:10:09.986Z,19.00
2023-05-11T19:12:55.820Z,19.00
2023-05-11T19:15:41.217Z,19.10
2023-05-11T19:18:27.604Z,19.10
2023-05-11T19:21:13.477Z,19.10
2023-05-11T19:23:59.509Z,18.80
2023-05-11T19:26:55.377Z,18.70
2023-05-11T19:29:51.425Z,18.70
2023-05-11T19:32:36.974Z,18.70
2023-05-11T19:35:23.046Z,18.70
2023-05-11T19:38:08.446Z,18.70
2023-05-11T19:40:54.088Z,18.70
2023-05-11T19:43:41.336Z,18.50
2023-05-11T19:46:27.403Z,18.30
2023-05-11T19:49:13.397Z,18.30
2023-05-11T19:51:59.295Z,18.20
2023-05-11T19:54:44.886Z,18.60
2023-05-11T19:57:32.227Z,18.30
2023-05-11T20:00:22.790Z,18.40
2023-05-11T20:03:08.846Z,18.40
2023-05-11T20:05:55.267Z,18.40
2023-05-11T20:08:41.618Z,18.00
2023-05-11T20:11:27.049Z,17.90
2023-05-11T20:14:13.310Z,18.10
2023-05-11T20:17:00.898Z,18.20
2023-05-11T20:19:46.945Z,18.10
2023-05-11T20:22:32.834Z,17.90
2023-05-11T20:25:22.159Z,17.80
2023-05-11T20:28:08.063Z,18.10
2023-05-11T20:30:55.110Z,18.10
2023-05-11T20:36:33.326Z,17.80
2023-05-11T20:39:21.419Z,17.90
2023-05-11T20:42:07.200Z,17.80
2023-05-11T20:44:53.297Z,17.00
2023-05-11T20:47:39.048Z,16.60
2023-05-11T20:50:26.887Z,16.30
2023-05-11T20:53:12.814Z,16.50
2023-05-11T20:55:59.418Z,16.70
2023-05-11T20:58:47.455Z,16.70
2023-05-11T21:01:33.278Z,16.20
2023-05-11T21:04:19.081Z,16.40
2023-05-11T21:07:06.574Z,16.60
2023-05-11T21:09:52.268Z,16.70
2023-05-11T21:12:38.089Z,16.70
2023-05-11T21:15:24.090Z,17.10
2023-05-11T21:18:09.779Z,17.00
2023-05-11T21:20:55.435Z,17.00
2023-05-11T21:23:42.601Z,17.20
2023-05-11T21:26:28.416Z,17.30
2023-05-11T21:29:13.860Z,17.50
2023-05-11T21:31:59.551Z,17.40
2023-05-11T21:34:45.207Z,17.40
2023-05-11T21:37:33.690Z,17.30
2023-05-11T21:40:20.991Z,17.00
2023-05-11T21:43:08.238Z,17.00
2023-05-11T21:45:55.088Z,17.10
2023-05-11T21:48:41.055Z,17.20
2023-05-11T21:51:26.792Z,17.20
2023-05-11T21:54:12.787Z,17.50
2023-05-11T21:56:59.868Z,17.70
2023-05-11T21:59:45.646Z,17.10
2023-05-11T22:02:31.332Z,16.70
2023-05-11T22:05:17.230Z,16.30
2023-05-11T22:08:13.318Z,16.20
2023-05-11T22:11:01.032Z,15.50
2023-05-11T22:13:48.326Z,15.60
2023-05-11T22:16:34.392Z,15.50
2023-05-11T22:19:20.273Z,15.40
2023-05-11T22:22:05.795Z,15.60
2023-05-11T22:24:51.174Z,15.70
2023-05-11T22:27:36.890Z,15.80
2023-05-11T22:30:24.162Z,15.60
2023-05-11T22:33:09.777Z,15.60
2023-05-11T22:35:55.672Z,15.60
2023-05-11T22:38:41.915Z,15.60
2023-05-11T22:41:27.724Z,16.00
2023-05-11T22:44:13.740Z,16.10
2023-05-11T22:47:02.338Z,16.40
2023-05-11T22:49:48.248Z,16.20
2023-05-11T22:52:34.079Z,16.20
2023-05-11T22:55:19.961Z,16.20
2023-05-11T22:58:05.320Z,16.10
2023-05-11T23:00:54.618Z,16.30
2023-05-11T23:03:41.798Z,16.20
2023-05-11T23:06:27.306Z,16.30
2023-05-11T23:09:12.916Z,16.20
2023-05-11T23:11:58.977Z,16.20
2023-05-11T23:14:44.638Z,16.40
2023-05-11T23:17:30.458Z,16.40
2023-05-11T23:20:17.717Z,15.70
2023-05-11T23:23:03.637Z,15.40
2023-05-11T23:25:49.332Z,15.60
2023-05-11T23:28:35.357Z,15.70
2023-05-11T23:31:21.079Z,15.50
2023-05-11T23:34:07.005Z,15.60
2023-05-11T23:36:54.038Z,15.20
2023-05-11T23:39:39.938Z,15.10
2023-05-11T23:42:25.268Z,15.30
2023-05-11T23:45:11.795Z,15.40
2023-05-11T23:47:57.409Z,15.50
2023-05-11T23:50:43.292Z,15.50
2023-05-11T23:53:30.458Z,15.40
2023-05-11T23:56:16.406Z,15.40
2023-05-11T23:59:01.933Z,15.00
